Time;durP1;ratioP1;P1;durP2;ratioP2;P2;SDS_P1;SDS_P2;PMS_P1;PMS_P2;Temp;Humidity;BMP_temperature;BMP_pressure;BME280_temperature;BME280_humidity;BME280_pressure;Samples;Min_cycle;Max_cycle;Signal;HPM_P1;HPM_P2
2021/09/02 00:00:25;;;;;;;44.33;24.10;;;11.60;99.90;;;;;;5059899;28;20420;-74
2021/09/02 00:02:51;;;;;;;45.93;25.50;;;11.60;99.90;;;;;;5050323;28;20439;-74
2021/09/02 00:05:16;;;;;;;42.87;24.83;;;11.70;99.90;;;;;;5049907;28;20389;-75
2021/09/02 00:07:42;;;;;;;45.78;24.30;;;11.70;99.90;;;;;;5049745;28;20886;-75
2021/09/02 00:10:08;;;;;;;40.35;23.20;;;11.70;99.90;;;;;;5048442;28;20402;-74
2021/09/02 00:12:33;;;;;;;46.47;25.15;;;11.70;99.90;;;;;;5054258;28;20472;-74
2021/09/02 00:14:59;;;;;;;46.33;24.20;;;11.60;99.90;;;;;;5053737;28;20950;-74
2021/09/02 00:17:25;;;;;;;42.05;23.42;;;11.60;99.90;;;;;;5053849;28;20889;-73
2021/09/02 00:19:50;;;;;;;44.80;24.25;;;11.60;99.90;;;;;;5053041;28;20409;-74
2021/09/02 00:22:16;;;;;;;42.03;24.00;;;11.60;99.90;;;;;;5053760;28;20546;-76
2021/09/02 00:24:41;;;;;;;48.30;24.15;;;11.50;99.90;;;;;;5054184;28;20438;-75
2021/09/02 00:27:07;;;;;;;46.88;24.45;;;11.40;99.90;;;;;;5053451;28;20442;-74
2021/09/02 00:29:33;;;;;;;45.40;24.80;;;11.40;99.90;;;;;;5053453;28;20492;-75
2021/09/02 00:31:58;;;;;;;44.97;24.40;;;11.40;99.90;;;;;;5053316;28;20397;-75
2021/09/02 00:34:24;;;;;;;43.30;24.50;;;11.40;99.90;;;;;;5053677;28;20412;-75
2021/09/02 00:36:49;;;;;;;40.87;24.00;;;11.40;99.90;;;;;;5053505;28;20369;-74
2021/09/02 00:39:15;;;;;;;47.70;25.03;;;11.30;99.90;;;;;;5053289;28;20401;-75
2021/09/02 00:41:40;;;;;;;45.17;23.50;;;11.40;99.90;;;;;;5053268;28;20442;-75
2021/09/02 00:44:06;;;;;;;51.22;24.92;;;11.40;99.90;;;;;;5053249;28;20384;-76
2021/09/02 00:46:31;;;;;;;43.65;23.27;;;11.30;99.90;;;;;;5053282;28;20428;-73
2021/09/02 00:48:58;;;;;;;43.33;23.50;;;11.30;99.90;;;;;;5052821;28;20420;-75
2021/09/02 00:51:23;;;;;;;45.42;22.88;;;11.30;99.90;;;;;;5053014;28;20397;-75
2021/09/02 00:53:53;;;;;;;41.50;23.23;;;11.20;99.90;;;;;;5053242;28;20389;-75
2021/09/02 00:56:19;;;;;;;40.00;23.60;;;11.40;99.90;;;;;;5053805;28;20393;-75
2021/09/02 00:58:48;;;;;;;50.63;24.47;;;11.30;99.90;;;;;;5052120;28;20462;-74
2021/09/02 01:01:16;;;;;;;47.60;23.40;;;11.20;99.90;;;;;;5053248;28;20393;-76
2021/09/02 01:03:42;;;;;;;43.70;23.30;;;11.20;99.90;;;;;;5053085;28;20430;-75
2021/09/02 01:06:07;;;;;;;43.27;23.40;;;11.30;99.90;;;;;;5052052;28;20809;-74
2021/09/02 01:08:34;;;;;;;41.43;22.60;;;11.20;99.90;;;;;;5053309;28;20385;-75
2021/09/02 01:11:00;;;;;;;49.30;23.25;;;11.20;99.90;;;;;;5048378;28;20412;-75
2021/09/02 01:13:26;;;;;;;37.55;22.75;;;11.20;99.90;;;;;;5053039;28;20397;-74
2021/09/02 01:15:52;;;;;;;42.22;22.63;;;11.20;99.90;;;;;;5052863;28;20381;-74
2021/09/02 01:18:18;;;;;;;43.90;22.40;;;11.20;99.90;;;;;;5057524;28;20377;-80
2021/09/02 01:20:44;;;;;;;39.20;24.23;;;11.20;99.90;;;;;;5054970;28;20539;-76
2021/09/02 01:23:10;;;;;;;44.77;23.30;;;11.20;99.90;;;;;;5053565;28;20393;-76
2021/09/02 01:25:42;;;;;;;41.50;22.73;;;11.20;99.90;;;;;;5052709;28;20775;-76
2021/09/02 01:28:10;;;;;;;47.17;22.75;;;11.20;99.90;;;;;;5041217;28;20394;-77
2021/09/02 01:30:38;;;;;;;43.30;24.15;;;11.20;99.90;;;;;;5039815;28;20416;-77
2021/09/02 01:33:05;;;;;;;46.95;23.00;;;11.10;99.90;;;;;;5053377;28;20893;-77
2021/09/02 01:35:34;;;;;;;42.13;21.67;;;11.10;99.90;;;;;;5053799;28;20392;-77
2021/09/02 01:38:03;;;;;;;43.03;22.17;;;11.10;99.90;;;;;;5051552;28;20385;-76
2021/09/02 01:40:55;;;;;;;42.65;23.58;;;11.20;99.90;;;;;;5048281;28;20401;-76
2021/09/02 01:43:20;;;;;;;43.92;23.30;;;11.20;99.90;;;;;;5049450;28;20477;-77
2021/09/02 01:45:46;;;;;;;40.93;23.20;;;11.30;99.90;;;;;;5053679;28;20953;-76
2021/09/02 01:48:11;;;;;;;44.40;22.30;;;11.40;99.90;;;;;;5052114;28;20970;-76
2021/09/02 01:50:42;;;;;;;44.55;23.77;;;11.60;99.90;;;;;;5057844;28;20441;-76
2021/09/02 01:53:10;;;;;;;42.67;22.38;;;11.50;99.00;;;;;;5055572;28;20382;-75
2021/09/02 01:55:36;;;;;;;41.65;22.50;;;11.30;99.90;;;;;;5051939;28;20385;-76
2021/09/02 01:58:03;;;;;;;44.90;23.42;;;11.20;99.90;;;;;;5052518;28;20386;-77
2021/09/02 02:00:28;;;;;;;42.70;23.55;;;11.40;99.90;;;;;;5056453;28;20397;-76
2021/09/02 02:02:54;;;;;;;45.10;24.20;;;11.30;99.90;;;;;;5056020;28;20405;-76
2021/09/02 02:05:20;;;;;;;46.28;23.60;;;11.20;99.90;;;;;;5053605;28;20896;-78
2021/09/02 02:07:45;;;;;;;43.65;22.42;;;11.20;99.90;;;;;;5053189;28;20715;-77
2021/09/02 02:10:17;;;;;;;46.10;24.50;;;11.10;99.90;;;;;;5045632;28;20413;-77
2021/09/02 02:12:43;;;;;;;47.83;23.52;;;11.00;99.90;;;;;;5054031;28;20385;-77
2021/09/02 02:15:10;;;;;;;42.85;23.80;;;10.90;99.90;;;;;;5056736;28;20394;-75
2021/09/02 02:17:36;;;;;;;52.92;25.17;;;10.90;99.90;;;;;;5056786;28;20464;-76
2021/09/02 02:20:03;;;;;;;46.70;24.60;;;11.00;99.90;;;;;;5051990;28;20425;-79
2021/09/02 02:22:28;;;;;;;47.15;24.55;;;11.20;99.90;;;;;;5054111;28;20389;-76
2021/09/02 02:24:54;;;;;;;48.03;22.90;;;11.30;99.90;;;;;;5054034;28;20443;-77
2021/09/02 02:27:20;;;;;;;43.57;22.23;;;11.50;99.10;;;;;;5053789;28;20397;-76
2021/09/02 02:29:45;;;;;;;47.40;23.70;;;11.50;98.10;;;;;;5057334;28;20432;-76
2021/09/02 02:32:11;;;;;;;45.23;22.67;;;11.40;99.20;;;;;;5054168;28;20984;-75
2021/09/02 02:34:36;;;;;;;39.50;22.87;;;11.40;99.90;;;;;;5035472;28;20387;-76
2021/09/02 02:37:03;;;;;;;45.67;22.70;;;11.50;99.90;;;;;;5033964;28;20387;-77
2021/09/02 02:39:28;;;;;;;43.72;22.23;;;11.50;99.80;;;;;;5048056;28;20751;-77
2021/09/02 02:41:54;;;;;;;44.90;22.80;;;11.60;99.90;;;;;;5054472;28;20402;-77
2021/09/02 02:44:19;;;;;;;40.60;21.15;;;11.70;99.20;;;;;;5051363;28;20377;-76
2021/09/02 02:46:45;;;;;;;37.88;19.90;;;11.80;97.80;;;;;;5050992;28;20477;-76
2021/09/02 02:49:11;;;;;;;40.35;21.27;;;11.90;96.50;;;;;;5051486;28;20416;-76
2021/09/02 02:51:36;;;;;;;36.30;20.27;;;11.90;96.40;;;;;;5045776;28;20431;-75
2021/09/02 02:54:03;;;;;;;35.72;19.77;;;12.00;94.50;;;;;;5030962;28;20930;-77
2021/09/02 02:56:28;;;;;;;35.83;19.42;;;12.10;94.50;;;;;;5034949;28;20461;-78
2021/09/02 02:58:54;;;;;;;34.83;19.13;;;12.20;88.30;;;;;;5051084;28;20393;-77
2021/09/02 03:01:20;;;;;;;33.63;18.85;;;12.30;84.90;;;;;;5051335;28;20440;-76
2021/09/02 03:03:45;;;;;;;31.17;19.27;;;12.40;82.90;;;;;;5067132;28;20463;-75
2021/09/02 03:06:14;;;;;;;37.58;19.38;;;12.40;83.70;;;;;;5057193;28;20405;-76
2021/09/02 03:08:40;;;;;;;32.97;19.85;;;12.50;81.20;;;;;;5056973;28;20396;-76
2021/09/02 03:11:06;;;;;;;36.67;20.10;;;12.40;83.90;;;;;;5042053;28;20403;-76
2021/09/02 03:13:32;;;;;;;43.10;20.60;;;12.40;85.40;;;;;;5038246;28;20384;-76
2021/09/02 03:15:58;;;;;;;40.60;20.63;;;12.30;85.50;;;;;;5047896;28;20488;-77
2021/09/02 03:18:23;;;;;;;36.17;19.95;;;12.30;87.70;;;;;;5059347;28;20417;-77
2021/09/02 03:20:49;;;;;;;42.00;20.17;;;12.30;90.60;;;;;;5050924;28;20410;-77
2021/09/02 03:23:15;;;;;;;36.45;21.17;;;12.30;90.30;;;;;;5052067;28;20866;-77
2021/09/02 03:25:40;;;;;;;35.42;19.73;;;12.30;91.40;;;;;;5052042;28;20385;-76
2021/09/02 03:28:06;;;;;;;40.30;19.95;;;12.30;92.70;;;;;;5051318;28;20816;-77
2021/09/02 03:30:31;;;;;;;36.17;19.05;;;12.60;89.30;;;;;;5052741;28;20453;-78
2021/09/02 03:32:57;;;;;;;38.25;21.05;;;12.80;82.20;;;;;;5047741;28;20391;-76
2021/09/02 03:35:24;;;;;;;36.80;18.73;;;12.80;80.40;;;;;;5030651;28;20387;-77
2021/09/02 03:37:49;;;;;;;33.92;19.42;;;12.90;77.60;;;;;;5046831;28;20389;-77
2021/09/02 03:40:15;;;;;;;38.00;20.00;;;13.10;72.90;;;;;;5041568;28;20395;-76
2021/09/02 03:42:40;;;;;;;42.13;20.10;;;13.00;74.30;;;;;;5030074;28;20850;-76
2021/09/02 03:45:07;;;;;;;37.57;19.23;;;13.00;74.80;;;;;;5031634;28;20386;-77
2021/09/02 03:47:34;;;;;;;38.38;21.73;;;13.00;73.20;;;;;;5048017;28;20394;-77
2021/09/02 03:49:59;;;;;;;38.85;20.05;;;12.70;76.90;;;;;;5053876;28;20406;-76
2021/09/02 03:52:25;;;;;;;39.58;21.75;;;12.60;81.20;;;;;;5054203;28;20504;-76
2021/09/02 03:54:50;;;;;;;33.78;20.02;;;12.50;81.70;;;;;;5054101;28;20766;-77
2021/09/02 03:57:16;;;;;;;32.92;19.60;;;12.50;85.50;;;;;;5053444;28;20413;-77
2021/09/02 03:59:41;;;;;;;38.47;19.15;;;12.40;86.30;;;;;;5053757;28;20405;-77
2021/09/02 04:02:07;;;;;;;31.10;19.17;;;12.40;86.80;;;;;;5053812;28;20460;-75
2021/09/02 04:04:32;;;;;;;37.30;19.67;;;12.30;87.60;;;;;;5053994;28;20706;-77
2021/09/02 04:06:58;;;;;;;35.63;20.30;;;12.30;86.90;;;;;;5053364;28;20488;-76
2021/09/02 04:09:23;;;;;;;32.47;18.70;;;12.40;85.60;;;;;;5053702;28;20423;-76
2021/09/02 04:11:49;;;;;;;33.93;19.57;;;12.50;82.10;;;;;;5053787;28;20716;-76
2021/09/02 04:14:14;;;;;;;38.15;20.35;;;12.30;82.70;;;;;;5053707;28;20842;-76
2021/09/02 04:16:40;;;;;;;36.42;21.40;;;12.00;86.20;;;;;;5066524;28;20420;-76
2021/09/02 04:19:06;;;;;;;38.47;20.38;;;11.80;89.30;;;;;;5052576;28;20385;-76
2021/09/02 04:21:31;;;;;;;36.80;20.90;;;11.70;93.20;;;;;;5055604;28;20450;-77
2021/09/02 04:23:57;;;;;;;38.37;20.50;;;11.70;96.00;;;;;;5055134;28;20754;-77
2021/09/02 04:26:22;;;;;;;37.97;22.07;;;11.70;96.00;;;;;;5058335;28;20480;-78
2021/09/02 04:28:48;;;;;;;38.23;22.13;;;11.70;95.00;;;;;;5060240;28;20480;-76
2021/09/02 04:31:13;;;;;;;41.50;23.47;;;11.70;97.30;;;;;;5062358;28;20385;-77
2021/09/02 04:33:39;;;;;;;37.90;20.90;;;11.80;95.20;;;;;;5058976;28;20467;-77
2021/09/02 04:36:05;;;;;;;39.40;21.77;;;11.70;95.60;;;;;;5060745;28;20391;-76
2021/09/02 04:38:30;;;;;;;39.13;21.80;;;11.70;96.50;;;;;;5062661;28;20495;-76
2021/09/02 04:40:56;;;;;;;44.00;23.10;;;11.70;95.90;;;;;;5063476;28;20491;-78
2021/09/02 04:43:21;;;;;;;41.47;22.25;;;11.70;97.50;;;;;;5054441;28;20416;-77
2021/09/02 04:45:47;;;;;;;40.83;22.50;;;11.70;97.50;;;;;;5053406;28;20390;-75
2021/09/02 04:48:19;;;;;;;36.95;20.70;;;11.80;95.80;;;;;;5059833;28;20393;-77
2021/09/02 04:50:47;;;;;;;38.67;20.55;;;11.80;94.40;;;;;;5056195;28;20411;-76
2021/09/02 04:53:12;;;;;;;40.93;21.53;;;11.80;93.30;;;;;;5059631;28;20821;-74
2021/09/02 04:55:38;;;;;;;38.03;22.20;;;11.70;94.20;;;;;;5061568;28;20774;-75
2021/09/02 04:58:05;;;;;;;42.35;23.52;;;11.80;93.90;;;;;;5065916;28;20408;-75
2021/09/02 05:00:32;;;;;;;41.40;21.52;;;11.50;94.70;;;;;;5059352;28;20447;-75
2021/09/02 05:02:57;;;;;;;47.85;24.75;;;11.50;98.10;;;;;;5052095;28;20385;-76
2021/09/02 05:05:23;;;;;;;41.15;21.63;;;11.40;98.50;;;;;;5051876;28;20412;-75
2021/09/02 05:07:48;;;;;;;41.10;22.23;;;11.50;99.90;;;;;;5052054;28;20516;-76
2021/09/02 05:10:14;;;;;;;44.60;22.90;;;11.60;99.80;;;;;;5042630;28;20403;-75
2021/09/02 05:12:40;;;;;;;40.60;22.02;;;11.70;95.70;;;;;;5048146;28;20899;-77
2021/09/02 05:15:06;;;;;;;41.28;21.48;;;11.70;96.00;;;;;;5052183;28;20496;-75
2021/09/02 05:17:31;;;;;;;46.63;22.30;;;11.70;95.20;;;;;;5052399;28;20754;-75
2021/09/02 05:19:57;;;;;;;41.70;22.17;;;11.60;96.60;;;;;;5053086;28;20973;-76
2021/09/02 05:22:23;;;;;;;45.30;22.10;;;11.60;98.80;;;;;;5052726;28;20392;-76
2021/09/02 05:24:49;;;;;;;47.17;23.15;;;11.80;96.20;;;;;;5052676;28;20785;-75
2021/09/02 05:27:14;;;;;;;42.13;22.55;;;11.70;97.30;;;;;;5052391;28;20870;-75
2021/09/02 05:29:40;;;;;;;40.58;21.10;;;11.80;96.50;;;;;;5051135;28;20417;-75
2021/09/02 05:32:06;;;;;;;42.35;22.13;;;11.90;95.80;;;;;;5052562;28;20389;-77
2021/09/02 05:34:32;;;;;;;48.05;22.23;;;12.00;95.00;;;;;;5051768;28;20462;-76
2021/09/02 05:36:57;;;;;;;45.70;22.50;;;12.10;92.50;;;;;;5051348;28;20464;-76
2021/09/02 05:39:23;;;;;;;44.80;23.13;;;12.10;94.50;;;;;;5051962;28;20893;-76
2021/09/02 05:41:50;;;;;;;46.30;24.10;;;12.20;93.20;;;;;;5047214;28;20399;-75
2021/09/02 05:44:16;;;;;;;38.35;22.50;;;12.30;91.70;;;;;;5032358;28;20387;-74
2021/09/02 05:46:42;;;;;;;44.28;22.00;;;12.40;90.20;;;;;;5050299;28;20393;-75
2021/09/02 05:49:07;;;;;;;47.45;23.33;;;12.40;89.20;;;;;;5053263;28;20747;-76
2021/09/02 05:51:33;;;;;;;43.10;22.77;;;12.60;84.10;;;;;;5053088;28;20441;-75
2021/09/02 05:53:59;;;;;;;43.20;21.77;;;12.50;86.30;;;;;;5052397;28;20404;-75
2021/09/02 05:56:25;;;;;;;47.37;23.73;;;12.60;87.00;;;;;;5051812;28;20405;-74
2021/09/02 05:58:50;;;;;;;41.90;23.27;;;12.60;87.10;;;;;;5050745;28;20401;-74
2021/09/02 06:01:16;;;;;;;42.70;22.93;;;12.80;85.70;;;;;;5051006;28;20851;-75
2021/09/02 06:03:42;;;;;;;42.30;21.73;;;13.00;78.90;;;;;;5051545;28;20386;-76
2021/09/02 06:06:08;;;;;;;42.35;22.02;;;13.10;78.60;;;;;;5059722;28;20492;-78
2021/09/02 06:08:34;;;;;;;42.35;21.98;;;13.20;74.00;;;;;;5055137;28;20401;-76
2021/09/02 06:11:02;;;;;;;39.83;22.00;;;13.40;72.20;;;;;;5036296;28;20446;-75
2021/09/02 06:13:31;;;;;;;40.33;22.00;;;13.50;70.10;;;;;;5034510;28;20388;-76
2021/09/02 06:15:57;;;;;;;40.23;22.60;;;13.50;70.30;;;;;;5049293;28;20629;-76
2021/09/02 06:18:23;;;;;;;45.60;23.70;;;13.50;70.20;;;;;;5043065;28;20494;-74
2021/09/02 06:20:49;;;;;;;44.88;22.77;;;13.50;70.30;;;;;;5036018;28;20397;-75
2021/09/02 06:23:15;;;;;;;48.40;22.60;;;13.60;71.40;;;;;;5040114;28;20874;-76
2021/09/02 06:25:41;;;;;;;47.00;22.25;;;13.50;71.90;;;;;;5051752;28;20417;-77
2021/09/02 06:28:07;;;;;;;45.00;23.38;;;13.50;74.50;;;;;;5044552;28;20424;-78
2021/09/02 06:30:33;;;;;;;42.88;22.85;;;13.60;74.60;;;;;;5050557;28;20495;-76
2021/09/02 06:32:59;;;;;;;45.37;23.00;;;13.60;73.50;;;;;;5049172;28;20980;-76
2021/09/02 06:35:24;;;;;;;47.53;23.53;;;13.60;73.70;;;;;;5050001;28;20492;-75
2021/09/02 06:37:50;;;;;;;44.37;24.43;;;13.60;74.80;;;;;;5043914;28;20406;-77
2021/09/02 06:40:15;;;;;;;45.93;23.50;;;13.60;76.00;;;;;;5049038;28;20946;-77
2021/09/02 06:42:41;;;;;;;41.65;21.92;;;13.80;73.00;;;;;;5049898;28;20411;-74
2021/09/02 06:45:07;;;;;;;42.92;22.90;;;13.90;69.80;;;;;;5042829;28;20395;-75
2021/09/02 06:47:33;;;;;;;47.37;22.80;;;14.10;68.40;;;;;;5042616;28;20416;-76
2021/09/02 06:50:00;;;;;;;46.53;24.00;;;14.40;63.50;;;;;;5050077;28;20894;-76
2021/09/02 06:52:26;;;;;;;39.75;22.35;;;14.60;61.70;;;;;;5050026;28;20402;-75
2021/09/02 06:54:51;;;;;;;47.17;23.30;;;14.80;60.70;;;;;;5049681;28;20774;-76
2021/09/02 06:57:17;;;;;;;48.65;22.60;;;15.00;58.80;;;;;;5049352;28;20462;-75
2021/09/02 06:59:43;;;;;;;42.40;21.85;;;15.20;56.00;;;;;;5049761;28;20530;-74
2021/09/02 07:02:09;;;;;;;41.88;22.35;;;15.60;52.40;;;;;;5047360;28;20445;-76
2021/09/02 07:04:34;;;;;;;43.85;22.25;;;15.90;50.30;;;;;;5049258;28;20397;-77
2021/09/02 07:07:00;;;;;;;38.53;21.77;;;16.00;49.00;;;;;;5043990;28;20901;-76
2021/09/02 07:09:25;;;;;;;38.87;21.53;;;16.20;48.30;;;;;;5045945;28;20417;-77
2021/09/02 07:11:51;;;;;;;45.47;22.70;;;16.50;45.20;;;;;;5048272;28;20432;-77
2021/09/02 07:14:17;;;;;;;42.67;22.00;;;16.50;45.50;;;;;;5049848;28;20377;-78
2021/09/02 07:16:42;;;;;;;45.83;21.40;;;16.70;44.60;;;;;;5049221;28;20404;-78
2021/09/02 07:19:08;;;;;;;42.93;21.60;;;17.00;42.40;;;;;;5044111;28;20769;-76
2021/09/02 07:21:33;;;;;;;43.83;22.07;;;17.20;41.90;;;;;;5035668;28;20876;-76
2021/09/02 07:23:59;;;;;;;45.22;22.42;;;17.40;41.30;;;;;;5050290;28;20396;-76
2021/09/02 07:26:24;;;;;;;46.95;22.10;;;17.30;40.80;;;;;;5050609;28;20830;-75
2021/09/02 07:28:50;;;;;;;32.70;19.60;;;17.20;41.00;;;;;;5049987;28;20389;-76
2021/09/02 07:31:15;;;;;;;39.70;19.60;;;17.20;41.10;;;;;;5049979;28;20484;-76
2021/09/02 07:33:41;;;;;;;35.10;19.95;;;17.40;41.20;;;;;;5053461;28;20385;-76
2021/09/02 07:36:06;;;;;;;32.28;19.40;;;17.80;38.90;;;;;;5050814;28;20393;-75
2021/09/02 07:38:32;;;;;;;36.27;19.07;;;17.90;38.60;;;;;;5050291;28;20877;-76
2021/09/02 07:40:58;;;;;;;33.53;18.47;;;18.00;37.70;;;;;;5046858;28;20586;-75
2021/09/02 07:43:23;;;;;;;36.23;19.23;;;17.90;37.90;;;;;;5049730;28;20404;-75
2021/09/02 07:45:49;;;;;;;31.33;18.92;;;18.10;37.20;;;;;;5049024;28;20476;-76
2021/09/02 07:48:14;;;;;;;29.65;17.27;;;18.20;36.30;;;;;;5049005;28;20388;-75
2021/09/02 07:50:40;;;;;;;38.13;19.27;;;18.20;36.30;;;;;;5049724;28;20412;-75
2021/09/02 07:53:06;;;;;;;35.93;19.40;;;18.20;36.80;;;;;;5064523;28;20877;-75
2021/09/02 07:55:31;;;;;;;33.78;18.35;;;18.10;37.90;;;;;;5048920;28;20918;-77
2021/09/02 07:58:00;;;;;;;36.50;18.75;;;18.30;37.60;;;;;;5039985;28;20381;-76
2021/09/02 08:00:26;;;;;;;38.72;19.00;;;18.40;36.30;;;;;;5050777;28;20425;-76
2021/09/02 08:02:51;;;;;;;32.60;18.73;;;18.30;36.80;;;;;;5049928;28;20573;-76
2021/09/02 08:05:17;;;;;;;35.33;19.07;;;18.10;37.50;;;;;;5048959;28;20400;-76
2021/09/02 08:07:48;;;;;;;34.30;18.92;;;18.10;37.80;;;;;;5049525;28;20385;-77
2021/09/02 08:10:15;;;;;;;29.80;19.20;;;18.10;38.00;;;;;;5048438;28;20843;-75
2021/09/02 08:12:40;;;;;;;31.88;19.05;;;18.10;38.00;;;;;;5050211;28;20385;-76
2021/09/02 08:15:07;;;;;;;39.70;18.90;;;18.10;38.30;;;;;;5049245;28;20397;-76
2021/09/02 08:17:32;;;;;;;31.40;18.55;;;18.00;38.30;;;;;;5047770;28;20429;-76
2021/09/02 08:19:58;;;;;;;31.20;18.77;;;18.40;37.90;;;;;;5047557;28;20933;-76
2021/09/02 08:22:23;;;;;;;36.83;18.60;;;18.30;37.50;;;;;;5049745;28;20397;-75
2021/09/02 08:24:49;;;;;;;36.85;18.83;;;18.50;36.40;;;;;;5047946;28;20409;-75
2021/09/02 08:27:14;;;;;;;34.00;19.97;;;18.60;36.30;;;;;;5048254;28;20491;-74
2021/09/02 08:29:40;;;;;;;38.03;18.40;;;18.50;36.00;;;;;;5049090;28;20405;-76
2021/09/02 08:32:06;;;;;;;39.10;20.55;;;18.30;36.50;;;;;;5050404;28;20404;-74
2021/09/02 08:34:31;;;;;;;33.30;19.08;;;18.10;37.70;;;;;;5041579;28;20571;-75
2021/09/02 08:36:57;;;;;;;35.37;19.40;;;18.00;38.60;;;;;;5051764;28;20831;-74
2021/09/02 08:39:22;;;;;;;38.27;19.60;;;18.10;38.90;;;;;;5050600;28;20466;-74
2021/09/02 08:41:49;;;;;;;40.17;18.80;;;18.30;38.50;;;;;;5052688;28;20468;-74
2021/09/02 08:44:14;;;;;;;39.08;19.15;;;18.50;37.70;;;;;;5052007;28;20397;-75
2021/09/02 08:46:41;;;;;;;37.95;19.80;;;18.50;37.00;;;;;;5052103;28;20415;-75
2021/09/02 08:49:07;;;;;;;35.58;19.40;;;18.40;37.60;;;;;;5084491;28;20418;-74
2021/09/02 08:51:33;;;;;;;32.67;18.10;;;18.40;38.40;;;;;;5052398;28;20753;-76
2021/09/02 08:53:59;;;;;;;37.15;19.15;;;18.50;38.10;;;;;;5052198;28;20393;-74
2021/09/02 08:56:24;;;;;;;32.10;17.53;;;18.60;37.20;;;;;;5052243;28;20703;-77
2021/09/02 08:58:50;;;;;;;33.70;18.50;;;18.50;37.60;;;;;;5052262;28;20468;-75
2021/09/02 09:01:15;;;;;;;38.58;19.45;;;18.50;38.30;;;;;;5050171;28;20397;-74
2021/09/02 09:03:48;;;;;;;39.47;18.20;;;18.80;37.30;;;;;;5043827;28;20393;-75
2021/09/02 09:06:26;;;;;;;35.90;18.55;;;18.90;36.80;;;;;;5047881;28;20417;-76
2021/09/02 09:08:52;;;;;;;33.72;16.83;;;18.80;37.50;;;;;;5053459;28;20813;-76
2021/09/02 09:11:28;;;;;;;33.15;16.33;;;18.90;36.90;;;;;;5050653;28;20428;-76
2021/09/02 09:14:10;;;;;;;33.60;17.05;;;18.90;36.60;;;;;;5053005;28;20393;-75
2021/09/02 09:16:49;;;;;;;36.05;15.90;;;19.00;37.20;;;;;;5052018;28;20830;-75
2021/09/02 09:19:37;;;;;;;35.42;16.65;;;19.00;37.50;;;;;;5051683;28;20385;-76
2021/09/02 09:22:05;;;;;;;34.90;17.95;;;19.00;37.80;;;;;;5051637;28;20822;-76
2021/09/02 09:24:46;;;;;;;29.27;16.60;;;19.10;37.10;;;;;;5052160;28;20695;-76
2021/09/02 09:27:19;;;;;;;31.98;16.70;;;19.20;37.00;;;;;;5050742;28;20393;-76
2021/09/02 09:30:19;;;;;;;31.13;16.77;;;19.20;36.50;;;;;;5051850;28;20774;-75
2021/09/02 09:32:58;;;;;;;28.05;14.65;;;19.30;36.50;;;;;;5037453;28;20387;-75
2021/09/02 09:35:26;;;;;;;29.90;14.43;;;19.10;36.00;;;;;;5051270;28;20548;-75
2021/09/02 09:38:10;;;;;;;23.80;14.23;;;19.10;37.00;;;;;;5050477;28;20396;-76
2021/09/02 09:40:41;;;;;;;31.65;14.10;;;19.30;37.30;;;;;;5040979;28;20474;-75
2021/09/02 09:43:09;;;;;;;29.35;14.20;;;19.40;36.40;;;;;;5050273;28;20475;-74
2021/09/02 09:45:52;;;;;;;28.27;15.65;;;19.50;36.00;;;;;;5051695;28;20389;-76
2021/09/02 09:48:20;;;;;;;28.92;14.60;;;19.60;35.80;;;;;;5042310;28;20924;-75
2021/09/02 09:51:13;;;;;;;30.17;15.00;;;19.80;35.10;;;;;;5051217;28;20458;-76
2021/09/02 09:53:40;;;;;;;30.02;14.25;;;19.90;34.30;;;;;;5042016;28;20440;-77
2021/09/02 09:56:06;;;;;;;24.17;14.32;;;20.20;33.70;;;;;;5053448;28;20387;-77
2021/09/02 09:58:32;;;;;;;27.55;14.30;;;20.20;33.40;;;;;;5052984;28;20397;-77
2021/09/02 10:00:59;;;;;;;21.17;13.50;;;20.00;33.20;;;;;;5068698;28;20413;-77
2021/09/02 10:03:27;;;;;;;25.48;14.18;;;20.00;33.00;;;;;;5047862;28;20485;-78
2021/09/02 10:05:53;;;;;;;30.55;14.50;;;20.20;33.00;;;;;;5034877;28;20459;-76
2021/09/02 10:08:20;;;;;;;27.17;13.57;;;20.10;33.10;;;;;;5039002;28;20404;-77
2021/09/02 10:10:49;;;;;;;22.13;13.90;;;20.40;32.70;;;;;;5051089;28;20458;-78
2021/09/02 10:13:16;;;;;;;25.60;12.50;;;20.30;32.60;;;;;;5053362;28;20393;-76
2021/09/02 10:15:42;;;;;;;23.20;13.05;;;20.70;32.30;;;;;;5053398;28;20771;-77
2021/09/02 10:18:08;;;;;;;22.92;13.10;;;20.80;30.60;;;;;;5050721;28;20958;-77
2021/09/02 10:20:39;;;;;;;27.48;13.07;;;21.00;29.50;;;;;;5050737;28;20492;-77
2021/09/02 10:23:06;;;;;;;25.70;12.50;;;20.90;30.10;;;;;;5050345;28;20480;-78
2021/09/02 10:28:12;;;;;;;23.40;13.13;;;20.50;30.70;;;;;;5040718;28;20433;-77
2021/09/02 10:30:55;;;;;;;24.07;13.03;;;20.70;29.90;;;;;;5034366;28;20999;-76
2021/09/02 10:33:35;;;;;;;20.90;12.97;;;20.80;30.00;;;;;;5051249;28;20377;-77
2021/09/02 10:36:10;;;;;;;24.67;14.00;;;20.90;28.70;;;;;;5037302;28;20561;-77
2021/09/02 10:38:56;;;;;;;26.20;14.02;;;20.80;28.50;;;;;;5051166;28;20397;-77
2021/09/02 10:41:37;;;;;;;27.55;11.80;;;20.60;29.80;;;;;;5036765;28;20453;-76
2021/09/02 10:44:07;;;;;;;22.08;11.93;;;20.70;29.30;;;;;;5043106;28;20466;-76
2021/09/02 10:46:45;;;;;;;17.67;11.00;;;20.70;28.80;;;;;;5051701;28;20416;-77
2021/09/02 10:49:18;;;;;;;17.90;11.50;;;20.80;28.40;;;;;;5051208;28;20459;-76
2021/09/02 10:51:46;;;;;;;21.33;11.45;;;21.00;27.70;;;;;;5037078;28;20759;-75
2021/09/02 10:54:14;;;;;;;22.65;12.15;;;21.40;27.10;;;;;;5051616;28;20382;-78
2021/09/02 10:57:03;;;;;;;22.45;12.50;;;21.50;26.70;;;;;;5051267;28;20401;-75
2021/09/02 10:59:39;;;;;;;21.80;11.50;;;21.60;26.30;;;;;;5050351;28;20455;-76
2021/09/02 11:02:16;;;;;;;22.23;12.48;;;21.70;26.60;;;;;;5051024;28;20385;-77
2021/09/02 11:04:46;;;;;;;21.88;11.85;;;22.00;26.30;;;;;;5050823;28;20405;-76
2021/09/02 11:07:12;;;;;;;17.52;10.77;;;22.30;24.30;;;;;;5049183;28;20405;-77
2021/09/02 11:09:40;;;;;;;21.30;10.73;;;22.30;23.90;;;;;;5047199;28;20411;-75
2021/09/02 11:12:11;;;;;;;22.08;11.80;;;22.10;26.10;;;;;;5050315;28;20413;-77
2021/09/02 11:14:45;;;;;;;22.45;11.52;;;22.10;26.90;;;;;;5049667;28;20408;-77
2021/09/02 11:17:11;;;;;;;20.25;11.82;;;22.10;25.50;;;;;;5048625;28;20389;-76
2021/09/02 11:19:39;;;;;;;19.70;10.13;;;22.10;24.60;;;;;;5049596;28;20469;-76
2021/09/02 11:22:10;;;;;;;20.33;10.93;;;22.30;24.00;;;;;;5049731;28;20388;-76
2021/09/02 11:24:47;;;;;;;17.85;10.05;;;22.60;24.60;;;;;;5041516;28;20427;-77
2021/09/02 11:27:31;;;;;;;26.13;12.07;;;22.80;23.80;;;;;;5033087;28;20409;-76
2021/09/02 11:30:13;;;;;;;22.10;11.00;;;23.30;23.80;;;;;;5050664;28;20405;-76
2021/09/02 11:32:38;;;;;;;21.38;10.80;;;23.40;23.00;;;;;;5045765;28;20417;-74
2021/09/02 11:35:05;;;;;;;20.27;10.95;;;23.30;21.90;;;;;;5048054;28;20443;-77
2021/09/02 11:37:46;;;;;;;19.60;10.30;;;23.30;22.00;;;;;;5048996;28;20381;-78
2021/09/02 11:40:28;;;;;;;18.67;10.47;;;23.20;22.80;;;;;;5049362;28;20488;-76
2021/09/02 11:42:56;;;;;;;359.15;288.90;;;23.50;21.00;;;;;;5050081;28;20393;-75
2021/09/02 11:45:24;;;;;;;15.32;9.30;;;23.50;20.60;;;;;;5049560;28;20936;-74
2021/09/02 11:47:50;;;;;;;18.00;12.67;;;23.80;20.90;;;;;;5049347;28;20453;-76
2021/09/02 11:50:21;;;;;;;29.25;21.52;;;23.80;19.40;;;;;;5050540;28;20398;-75
2021/09/02 11:52:49;;;;;;;31.25;17.20;;;23.90;18.60;;;;;;5046231;28;20405;-75
2021/09/02 11:55:32;;;;;;;33.88;23.70;;;23.80;19.10;;;;;;5050637;28;20995;-78
2021/09/02 11:58:00;;;;;;;17.92;11.48;;;23.80;19.00;;;;;;5051000;28;20417;-78
2021/09/02 12:00:27;;;;;;;11.77;8.85;;;23.70;17.20;;;;;;5050407;28;20394;-78
2021/09/02 12:03:04;;;;;;;20.05;13.43;;;23.70;17.60;;;;;;5054045;28;20397;-78
2021/09/02 12:05:39;;;;;;;22.03;14.47;;;24.10;17.30;;;;;;5053546;28;20401;-79
2021/09/02 12:08:09;;;;;;;67.85;49.10;;;24.40;16.50;;;;;;5053309;28;20535;-78
2021/09/02 12:10:37;;;;;;;13.80;8.93;;;24.50;15.90;;;;;;5053209;28;20478;-76
2021/09/02 12:13:22;;;;;;;12.50;8.45;;;24.90;15.10;;;;;;5053348;28;20380;-78
2021/09/02 12:16:04;;;;;;;28.80;17.88;;;25.00;15.00;;;;;;5069096;28;20389;-78
2021/09/02 12:18:30;;;;;;;14.47;9.10;;;24.80;16.60;;;;;;5052586;28;20429;-77
2021/09/02 12:21:07;;;;;;;21.73;12.60;;;24.70;16.90;;;;;;5070404;28;20389;-74
2021/09/02 12:23:42;;;;;;;16.00;9.00;;;24.60;17.40;;;;;;5051882;28;20440;-75
2021/09/02 12:26:08;;;;;;;15.82;8.98;;;24.50;17.10;;;;;;5052547;28;20409;-77
2021/09/02 12:28:35;;;;;;;16.73;9.32;;;24.20;17.40;;;;;;5053287;28;20385;-77
2021/09/02 12:31:19;;;;;;;13.18;9.40;;;23.90;17.40;;;;;;5053552;28;20424;-76
2021/09/02 12:33:59;;;;;;;14.23;8.45;;;23.90;17.50;;;;;;5054142;28;20588;-77